aviador You're here:

K24A Decoded Metar

in
Report Time2017-12-16 10:00:00
UTC Time2017-12-16 11:02:32
Flight Rules vfr VFR
WindCalm
Visibility9999 m
Phenomena:N/A
Clouds:N/A
Expected CloudBase > 1,200 ft AGL from Temp-Dew spread
CeilingNone
Temp-5°C
Dew Point-8°C (80% RH)
AAT-7.9°C
QNH1021 hPa
Raw Report
METAR K24A 161000Z AUTO 00000KT 10SM CLR M05/M08 A3016 RMK AO2 T10541075=

Extra information for K24A:More info

Social comments